Aquadale, North Carolina
Current Conditions -  °F | °C
As of 2:15 PM on Tuesday 21 Oct 2014 (Local Time) from KVUJ Reporting Station
Broken Clouds Broken Clouds  
Wind Chill: 72°   Ceiling: 6000
Heat Index: 72°   Visibility: 10mi
Dew Point: 48°   Wind: 8mph
Humidity: 42%   Direction: 280°W
Pressure: 29.91"   Gusts: NA
Location:  35.2152°N, 80.1663°W
Report Text: KVUJ 211815Z AUTO 28007KT 10SM BKN060 22/09 A2991 RMK AO2 T02240090
Loading
Personal Weather Stations






























Interactive Weather Map
Tropical Storm Tracking
New forecast layout! Learn more

10-Day Weather Forecast

Advertisements
Track Severe Weather on mobile